sensor_id;sensor_type;location;lat;lon;timestamp;pressure;altitude;pressure_sealevel;temperature;humidity
60059;BME280;45932;50.658;3.022;2022-11-20T00:01:13;101097.78;;;9.66;70.64
60059;BME280;45932;50.658;3.022;2022-11-20T00:03:38;101059.53;;;9.23;69.73
60059;BME280;45932;50.658;3.022;2022-11-20T00:06:06;101100.22;;;9.49;70.21
60059;BME280;45932;50.658;3.022;2022-11-20T00:08:32;101164.78;;;9.89;70.53
60059;BME280;45932;50.658;3.022;2022-11-20T00:10:57;101119.66;;;9.61;70.43
60059;BME280;45932;50.658;3.022;2022-11-20T00:13:23;101044.63;;;9.25;70.39
60059;BME280;45932;50.658;3.022;2022-11-20T00:15:48;101092.28;;;9.47;70.54
60059;BME280;45932;50.658;3.022;2022-11-20T00:18:14;101081.66;;;9.38;70.31
60059;BME280;45932;50.658;3.022;2022-11-20T00:20:39;101116.16;;;9.63;70.47
60059;BME280;45932;50.658;3.022;2022-11-20T00:23:04;101065.72;;;9.28;69.80
60059;BME280;45932;50.658;3.022;2022-11-20T00:25:31;101105.50;;;9.52;69.69
60059;BME280;45932;50.658;3.022;2022-11-20T00:27:56;101079.91;;;9.40;69.80
60059;BME280;45932;50.658;3.022;2022-11-20T00:30:21;101096.59;;;9.42;69.96
60059;BME280;45932;50.658;3.022;2022-11-20T00:32:47;101050.63;;;9.17;70.21
60059;BME280;45932;50.658;3.022;2022-11-20T00:35:12;101102.00;;;9.50;70.58
60059;BME280;45932;50.658;3.022;2022-11-20T00:37:40;101093.97;;;9.43;70.76
60059;BME280;45932;50.658;3.022;2022-11-20T00:40:06;101074.56;;;9.34;70.48
60059;BME280;45932;50.658;3.022;2022-11-20T00:42:31;101096.69;;;9.48;70.66
60059;BME280;45932;50.658;3.022;2022-11-20T00:44:57;101043.63;;;9.16;70.33
60059;BME280;45932;50.658;3.022;2022-11-20T00:47:23;101075.53;;;9.42;70.59
60059;BME280;45932;50.658;3.022;2022-11-20T00:49:48;101044.44;;;9.10;70.17
60059;BME280;45932;50.658;3.022;2022-11-20T00:52:13;101134.66;;;9.67;69.81
60059;BME280;45932;50.658;3.022;2022-11-20T00:54:39;101093.03;;;9.37;70.25
60059;BME280;45932;50.658;3.022;2022-11-20T00:57:04;101081.56;;;9.33;70.67
60059;BME280;45932;50.658;3.022;2022-11-20T00:59:29;101046.22;;;9.12;70.19
60059;BME280;45932;50.658;3.022;2022-11-20T01:01:55;101087.75;;;9.35;70.46
60059;BME280;45932;50.658;3.022;2022-11-20T01:04:20;101092.28;;;9.47;70.83
60059;BME280;45932;50.658;3.022;2022-11-20T01:06:45;101138.16;;;9.65;70.73
60059;BME280;45932;50.658;3.022;2022-11-20T01:09:12;101061.22;;;9.18;70.68
60059;BME280;45932;50.658;3.022;2022-11-20T01:11:40;101088.63;;;9.36;70.62
60059;BME280;45932;50.658;3.022;2022-11-20T01:14:09;101105.47;;;9.49;70.47
60059;BME280;45932;50.658;3.022;2022-11-20T01:16:37;101118.72;;;9.53;70.22
60059;BME280;45932;50.658;3.022;2022-11-20T01:19:06;101102.78;;;9.44;69.97
60059;BME280;45932;50.658;3.022;2022-11-20T01:21:34;101163.81;;;9.81;70.36
60059;BME280;45932;50.658;3.022;2022-11-20T01:24:01;101161.16;;;9.81;70.69
60059;BME280;45932;50.658;3.022;2022-11-20T01:26:32;100981.75;;;8.76;70.58
60059;BME280;45932;50.658;3.022;2022-11-20T01:28:58;101061.28;;;9.24;70.54
60059;BME280;45932;50.658;3.022;2022-11-20T01:31:27;101162.94;;;9.82;70.86
60059;BME280;45932;50.658;3.022;2022-11-20T01:33:54;101140.94;;;9.80;70.70
60059;BME280;45932;50.658;3.022;2022-11-20T01:36:22;101076.44;;;9.44;70.88
60059;BME280;45932;50.658;3.022;2022-11-20T01:38:48;101135.66;;;9.75;70.68
60059;BME280;45932;50.658;3.022;2022-11-20T01:41:15;101069.28;;;9.34;70.87
60059;BME280;45932;50.658;3.022;2022-11-20T01:44:00;101068.50;;;9.41;71.00
60059;BME280;45932;50.658;3.022;2022-11-20T01:46:26;101072.84;;;9.36;70.65
60059;BME280;45932;50.658;3.022;2022-11-20T01:49:16;101065.78;;;9.33;70.53
60059;BME280;45932;50.658;3.022;2022-11-20T01:51:45;101063.28;;;9.42;71.00
60059;BME280;45932;50.658;3.022;2022-11-20T01:54:18;101131.31;;;9.82;70.99
60059;BME280;45932;50.658;3.022;2022-11-20T01:56:46;101060.66;;;9.44;70.96
60059;BME280;45932;50.658;3.022;2022-11-20T01:59:15;101076.66;;;9.63;70.88
60059;BME280;45932;50.658;3.022;2022-11-20T02:01:43;101092.53;;;9.69;70.78
60059;BME280;45932;50.658;3.022;2022-11-20T02:04:09;101068.69;;;9.56;70.59
60059;BME280;45932;50.658;3.022;2022-11-20T02:06:40;101117.34;;;9.88;71.01
60059;BME280;45932;50.658;3.022;2022-11-20T02:09:07;101057.22;;;9.50;71.18
60059;BME280;45932;50.658;3.022;2022-11-20T02:11:32;100992.78;;;9.20;71.17
60059;BME280;45932;50.658;3.022;2022-11-20T02:13:58;101052.88;;;9.55;70.95
60059;BME280;45932;50.658;3.022;2022-11-20T02:16:27;101084.63;;;9.69;70.97
60059;BME280;45932;50.658;3.022;2022-11-20T02:18:55;100963.28;;;8.75;70.76
60059;BME280;45932;50.658;3.022;2022-11-20T02:21:33;101119.06;;;9.84;70.95
60059;BME280;45932;50.658;3.022;2022-11-20T02:26:28;101095.09;;;9.64;70.49
60059;BME280;45932;50.658;3.022;2022-11-20T02:28:54;101012.06;;;9.16;70.27
60059;BME280;45932;50.658;3.022;2022-11-20T02:31:20;101036.75;;;9.28;70.63
60059;BME280;45932;50.658;3.022;2022-11-20T02:33:45;101081.94;;;9.63;70.59
60059;BME280;45932;50.658;3.022;2022-11-20T02:36:15;101038.53;;;9.31;70.47
60059;BME280;45932;50.658;3.022;2022-11-20T02:38:41;101070.41;;;9.54;70.08
60059;BME280;45932;50.658;3.022;2022-11-20T02:41:08;101006.81;;;9.19;70.57
60059;BME280;45932;50.658;3.022;2022-11-20T02:43:33;101056.38;;;9.52;70.58
60059;BME280;45932;50.658;3.022;2022-11-20T02:45:58;101058.13;;;9.53;70.97
60059;BME280;45932;50.658;3.022;2022-11-20T02:48:24;101031.63;;;9.41;70.90
60059;BME280;45932;50.658;3.022;2022-11-20T02:50:49;101008.72;;;9.32;70.67
60059;BME280;45932;50.658;3.022;2022-11-20T02:53:14;101052.75;;;9.45;70.38
60059;BME280;45932;50.658;3.022;2022-11-20T02:55:40;100984.84;;;9.15;70.84
60059;BME280;45932;50.658;3.022;2022-11-20T02:58:05;100974.31;;;9.17;71.06
60059;BME280;45932;50.658;3.022;2022-11-20T03:00:30;101044.97;;;9.53;70.71
60059;BME280;45932;50.658;3.022;2022-11-20T03:02:57;100993.78;;;9.31;71.03
60059;BME280;45932;50.658;3.022;2022-11-20T03:05:22;100939.03;;;9.01;70.83
60059;BME280;45932;50.658;3.022;2022-11-20T03:07:48;101062.56;;;9.60;70.89
60059;BME280;45932;50.658;3.022;2022-11-20T03:10:13;101025.50;;;9.42;70.63
60059;BME280;45932;50.658;3.022;2022-11-20T03:12:38;100994.63;;;9.28;70.35
60059;BME280;45932;50.658;3.022;2022-11-20T03:15:04;100993.78;;;9.29;70.61
60059;BME280;45932;50.658;3.022;2022-11-20T03:17:29;100946.09;;;9.03;70.41
60059;BME280;45932;50.658;3.022;2022-11-20T03:19:55;100971.78;;;9.24;70.74
60059;BME280;45932;50.658;3.022;2022-11-20T03:22:21;100993.03;;;9.41;70.83
60059;BME280;45932;50.658;3.022;2022-11-20T03:24:47;101036.34;;;9.70;71.05
60059;BME280;45932;50.658;3.022;2022-11-20T03:27:12;100981.53;;;9.32;70.72
60059;BME280;45932;50.658;3.022;2022-11-20T03:29:37;101008.03;;;9.49;70.47
60059;BME280;45932;50.658;3.022;2022-11-20T03:32:03;101012.34;;;9.43;70.13
60059;BME280;45932;50.658;3.022;2022-11-20T03:34:28;100989.34;;;9.25;69.72
60059;BME280;45932;50.658;3.022;2022-11-20T03:36:54;100994.56;;;9.21;69.58
60059;BME280;45932;50.658;3.022;2022-11-20T03:39:19;101027.22;;;9.37;69.89
60059;BME280;45932;50.658;3.022;2022-11-20T03:41:44;101011.28;;;9.27;69.94
60059;BME280;45932;50.658;3.022;2022-11-20T03:44:11;100998.84;;;9.14;70.29
60059;BME280;45932;50.658;3.022;2022-11-20T03:46:37;101059.88;;;9.54;69.72
60059;BME280;45932;50.658;3.022;2022-11-20T03:49:03;101023.44;;;9.16;69.81
60059;BME280;45932;50.658;3.022;2022-11-20T03:51:31;100987.41;;;9.09;70.18
60059;BME280;45932;50.658;3.022;2022-11-20T03:54:06;100978.66;;;9.11;70.37
60059;BME280;45932;50.658;3.022;2022-11-20T03:56:34;100964.47;;;8.99;70.26
60059;BME280;45932;50.658;3.022;2022-11-20T03:59:00;100954.81;;;8.97;70.34
60059;BME280;45932;50.658;3.022;2022-11-20T04:01:29;100990.03;;;9.10;70.61
60059;BME280;45932;50.658;3.022;2022-11-20T04:03:56;100933.56;;;8.82;70.62
60059;BME280;45932;50.658;3.022;2022-11-20T04:06:27;101017.63;;;9.42;70.75
60059;BME280;45932;50.658;3.022;2022-11-20T04:08:57;100984.09;;;9.25;70.52
60059;BME280;45932;50.658;3.022;2022-11-20T04:11:29;100927.63;;;8.99;70.61
60059;BME280;45932;50.658;3.022;2022-11-20T04:14:00;100996.47;;;9.36;70.73
60059;BME280;45932;50.658;3.022;2022-11-20T04:16:26;100989.44;;;9.32;70.88
60059;BME280;45932;50.658;3.022;2022-11-20T04:18:55;100951.47;;;9.14;71.29
60059;BME280;45932;50.658;3.022;2022-11-20T04:21:22;100861.44;;;8.61;70.99
60059;BME280;45932;50.658;3.022;2022-11-20T04:23:48;100909.09;;;8.86;70.77
60059;BME280;45932;50.658;3.022;2022-11-20T04:26:13;100915.28;;;8.91;70.76
60059;BME280;45932;50.658;3.022;2022-11-20T04:28:40;100916.06;;;8.86;70.57
60059;BME280;45932;50.658;3.022;2022-11-20T04:31:11;100974.44;;;9.24;70.75
60059;BME280;45932;50.658;3.022;2022-11-20T04:33:38;101001.75;;;9.37;70.56
60059;BME280;45932;50.658;3.022;2022-11-20T04:36:23;100926.69;;;8.93;70.41
60059;BME280;45932;50.658;3.022;2022-11-20T04:38:53;101000.88;;;9.37;70.70
60059;BME280;45932;50.658;3.022;2022-11-20T04:41:20;100996.41;;;9.31;70.93
60059;BME280;45932;50.658;3.022;2022-11-20T04:43:51;100979.78;;;9.34;71.08
60059;BME280;45932;50.658;3.022;2022-11-20T04:46:18;100978.06;;;9.36;71.27
60059;BME280;45932;50.658;3.022;2022-11-20T04:48:43;100888.09;;;8.92;71.23
60059;BME280;45932;50.658;3.022;2022-11-20T04:51:09;100928.69;;;9.16;71.17
60059;BME280;45932;50.658;3.022;2022-11-20T04:53:34;100891.69;;;9.01;71.15
60059;BME280;45932;50.658;3.022;2022-11-20T04:56:10;100890.75;;;8.97;71.26
60059;BME280;45932;50.658;3.022;2022-11-20T04:58:37;100898.75;;;9.05;71.37
60059;BME280;45932;50.658;3.022;2022-11-20T05:01:04;100880.25;;;8.97;71.39
60059;BME280;45932;50.658;3.022;2022-11-20T05:03:30;100895.28;;;9.06;71.23
60059;BME280;45932;50.658;3.022;2022-11-20T05:05:55;100889.03;;;8.99;70.75
60059;BME280;45932;50.658;3.022;2022-11-20T05:08:20;100921.59;;;9.09;70.89
60059;BME280;45932;50.658;3.022;2022-11-20T05:10:46;100911.94;;;9.06;71.16
60059;BME280;45932;50.658;3.022;2022-11-20T05:13:11;100903.91;;;8.95;70.88
60059;BME280;45932;50.658;3.022;2022-11-20T05:15:36;100869.56;;;8.81;71.24
60059;BME280;45932;50.658;3.022;2022-11-20T05:18:02;100913.72;;;9.09;70.98
60059;BME280;45932;50.658;3.022;2022-11-20T05:20:27;100911.06;;;9.09;71.30
60059;BME280;45932;50.658;3.022;2022-11-20T05:22:56;100951.72;;;9.33;71.40
60059;BME280;45932;50.658;3.022;2022-11-20T05:25:21;100868.66;;;8.79;71.30
60059;BME280;45932;50.658;3.022;2022-11-20T05:27:47;100873.06;;;8.82;71.57
60059;BME280;45932;50.658;3.022;2022-11-20T05:30:14;100900.41;;;8.95;71.63
60059;BME280;45932;50.658;3.022;2022-11-20T05:32:39;100844.84;;;8.67;71.72
60059;BME280;45932;50.658;3.022;2022-11-20T05:35:05;100891.63;;;8.94;71.54
60059;BME280;45932;50.658;3.022;2022-11-20T05:37:30;100898.69;;;8.99;72.04
60059;BME280;45932;50.658;3.022;2022-11-20T05:39:55;100891.72;;;9.04;71.67
60059;BME280;45932;50.658;3.022;2022-11-20T05:42:21;100852.00;;;8.79;71.60
60059;BME280;45932;50.658;3.022;2022-11-20T05:44:56;100861.75;;;8.89;71.69
60059;BME280;45932;50.658;3.022;2022-11-20T05:47:21;100867.94;;;8.93;71.65
60059;BME280;45932;50.658;3.022;2022-11-20T05:49:46;100859.03;;;8.81;71.69
60059;BME280;45932;50.658;3.022;2022-11-20T05:52:12;100882.94;;;9.02;71.78
60059;BME280;45932;50.658;3.022;2022-11-20T05:54:37;100867.13;;;8.99;71.73
60059;BME280;45932;50.658;3.022;2022-11-20T05:57:02;100900.66;;;9.18;71.63
60059;BME280;45932;50.658;3.022;2022-11-20T05:59:28;100841.50;;;8.82;71.65
60059;BME280;45932;50.658;3.022;2022-11-20T06:01:53;100882.97;;;9.05;72.03
60059;BME280;45932;50.658;3.022;2022-11-20T06:04:18;100809.75;;;8.63;71.90
60059;BME280;45932;50.658;3.022;2022-11-20T06:06:44;100898.91;;;9.20;71.95
60059;BME280;45932;50.658;3.022;2022-11-20T06:09:09;100845.09;;;8.90;71.90
60059;BME280;45932;50.658;3.022;2022-11-20T06:11:34;100901.59;;;9.23;71.85
60059;BME280;45932;50.658;3.022;2022-11-20T06:14:00;100856.63;;;9.02;71.96
60059;BME280;45932;50.658;3.022;2022-11-20T06:16:25;100919.31;;;9.41;72.28
60059;BME280;45932;50.658;3.022;2022-11-20T06:18:51;100888.38;;;9.20;72.43
60059;BME280;45932;50.658;3.022;2022-11-20T06:21:19;100869.13;;;9.23;71.94
60059;BME280;45932;50.658;3.022;2022-11-20T06:23:45;100888.53;;;9.33;72.15
60059;BME280;45932;50.658;3.022;2022-11-20T06:26:15;100781.84;;;8.79;72.11
60059;BME280;45932;50.658;3.022;2022-11-20T06:28:41;100888.63;;;9.45;71.97
60059;BME280;45932;50.658;3.022;2022-11-20T06:31:07;100816.28;;;9.03;71.99
60059;BME280;45932;50.658;3.022;2022-11-20T06:33:33;100835.66;;;9.09;72.13
60059;BME280;45932;50.658;3.022;2022-11-20T06:35:59;100772.19;;;8.77;72.44
60059;BME280;45932;50.658;3.022;2022-11-20T06:38:26;100813.66;;;9.01;72.17
60059;BME280;45932;50.658;3.022;2022-11-20T06:40:52;100878.09;;;9.45;72.24
60059;BME280;45932;50.658;3.022;2022-11-20T06:43:17;100860.38;;;9.28;72.00
60059;BME280;45932;50.658;3.022;2022-11-20T06:45:42;100832.19;;;9.15;72.18
60059;BME280;45932;50.658;3.022;2022-11-20T06:48:08;100804.03;;;9.05;72.30
60059;BME280;45932;50.658;3.022;2022-11-20T06:50:35;100885.19;;;9.52;72.29
60059;BME280;45932;50.658;3.022;2022-11-20T06:53:02;100827.88;;;9.25;72.50
60059;BME280;45932;50.658;3.022;2022-11-20T06:55:28;100807.63;;;9.16;72.37
60059;BME280;45932;50.658;3.022;2022-11-20T06:57:53;100820.91;;;9.27;72.45
60059;BME280;45932;50.658;3.022;2022-11-20T07:00:19;100810.38;;;9.30;72.41
60059;BME280;45932;50.658;3.022;2022-11-20T07:02:44;100798.94;;;9.23;72.23
60059;BME280;45932;50.658;3.022;2022-11-20T07:05:09;100763.59;;;8.96;72.02
60059;BME280;45932;50.658;3.022;2022-11-20T07:07:35;100834.16;;;9.38;72.28
60059;BME280;45932;50.658;3.022;2022-11-20T07:10:00;100805.13;;;9.30;72.15
60059;BME280;45932;50.658;3.022;2022-11-20T07:12:25;100811.28;;;9.29;72.19
60059;BME280;45932;50.658;3.022;2022-11-20T07:14:50;100781.34;;;9.19;72.22
60059;BME280;45932;50.658;3.022;2022-11-20T07:17:16;100834.22;;;9.44;72.24
60059;BME280;45932;50.658;3.022;2022-11-20T07:19:41;100754.84;;;8.99;71.95
60059;BME280;45932;50.658;3.022;2022-11-20T07:22:08;100820.94;;;9.35;72.25
60059;BME280;45932;50.658;3.022;2022-11-20T07:24:33;100825.41;;;9.42;72.16
60059;BME280;45932;50.658;3.022;2022-11-20T07:26:59;100810.38;;;9.28;72.09
60059;BME280;45932;50.658;3.022;2022-11-20T07:29:25;100845.59;;;9.44;72.13
60059;BME280;45932;50.658;3.022;2022-11-20T07:31:50;100783.09;;;9.16;71.99
60059;BME280;45932;50.658;3.022;2022-11-20T07:34:15;100793.72;;;9.29;72.14
60059;BME280;45932;50.658;3.022;2022-11-20T07:36:41;100783.13;;;9.23;71.88
60059;BME280;45932;50.658;3.022;2022-11-20T07:39:06;100766.34;;;9.10;71.94
60059;BME280;45932;50.658;3.022;2022-11-20T07:41:32;100799.84;;;9.30;71.86
60059;BME280;45932;50.658;3.022;2022-11-20T07:43:58;100795.50;;;9.34;71.55
60059;BME280;45932;50.658;3.022;2022-11-20T07:46:23;100788.50;;;9.34;71.56
60059;BME280;45932;50.658;3.022;2022-11-20T07:48:48;100832.53;;;9.57;71.24
60059;BME280;45932;50.658;3.022;2022-11-20T07:51:14;100782.31;;;9.31;71.58
60059;BME280;45932;50.658;3.022;2022-11-20T07:53:39;100785.00;;;9.37;71.50
60059;BME280;45932;50.658;3.022;2022-11-20T07:56:05;100852.91;;;9.81;71.34
60059;BME280;45932;50.658;3.022;2022-11-20T07:58:31;100788.53;;;9.39;71.18
60059;BME280;45932;50.658;3.022;2022-11-20T08:01:02;100794.72;;;9.47;71.46
60059;BME280;45932;50.658;3.022;2022-11-20T08:03:27;100800.88;;;9.51;71.56
60059;BME280;45932;50.658;3.022;2022-11-20T08:05:52;100812.38;;;9.59;71.31
60059;BME280;45932;50.658;3.022;2022-11-20T08:08:18;100742.75;;;9.20;71.43
60059;BME280;45932;50.658;3.022;2022-11-20T08:10:43;100799.16;;;9.51;71.32
60059;BME280;45932;50.658;3.022;2022-11-20T08:13:08;100732.19;;;9.15;71.07
60059;BME280;45932;50.658;3.022;2022-11-20T08:15:52;100803.56;;;9.54;71.07
60059;BME280;45932;50.658;3.022;2022-11-20T08:18:18;100848.59;;;9.89;71.18
60059;BME280;45932;50.658;3.022;2022-11-20T08:20:44;100854.75;;;9.90;70.91
60059;BME280;45932;50.658;3.022;2022-11-20T08:23:09;100808.00;;;9.63;70.60
60059;BME280;45932;50.658;3.022;2022-11-20T08:25:36;100847.69;;;9.87;70.97
60059;BME280;45932;50.658;3.022;2022-11-20T08:28:39;100851.22;;;9.89;70.85
60059;BME280;45932;50.658;3.022;2022-11-20T08:31:07;100745.47;;;9.29;70.97
60059;BME280;45932;50.658;3.022;2022-11-20T08:33:34;100789.56;;;9.61;70.78
60059;BME280;45932;50.658;3.022;2022-11-20T08:36:04;100806.31;;;9.71;70.94
60059;BME280;45932;50.658;3.022;2022-11-20T08:38:30;100753.41;;;9.35;70.92
60059;BME280;45932;50.658;3.022;2022-11-20T08:40:59;100731.34;;;9.19;70.49
60059;BME280;45932;50.658;3.022;2022-11-20T08:43:43;100779.03;;;9.63;70.98
60059;BME280;45932;50.658;3.022;2022-11-20T08:46:09;100817.84;;;9.85;70.75
60059;BME280;45932;50.658;3.022;2022-11-20T08:48:34;100745.56;;;9.44;70.35
60059;BME280;45932;50.658;3.022;2022-11-20T08:50:59;100788.72;;;9.62;70.45
60059;BME280;45932;50.658;3.022;2022-11-20T08:53:26;100751.75;;;9.51;70.72
60059;BME280;45932;50.658;3.022;2022-11-20T08:55:51;100795.81;;;9.77;70.69
60059;BME280;45932;50.658;3.022;2022-11-20T08:58:17;100793.19;;;9.78;70.97
60059;BME280;45932;50.658;3.022;2022-11-20T09:00:42;100772.94;;;9.70;70.86
60059;BME280;45932;50.658;3.022;2022-11-20T09:03:07;100666.38;;;9.12;70.41
60059;BME280;45932;50.658;3.022;2022-11-20T09:05:33;100765.03;;;9.71;70.74
60059;BME280;45932;50.658;3.022;2022-11-20T09:07:58;100707.78;;;9.39;70.39
60059;BME280;45932;50.658;3.022;2022-11-20T09:10:24;100750.97;;;9.68;70.53
60059;BME280;45932;50.658;3.022;2022-11-20T09:12:50;100795.88;;;9.89;70.16
60059;BME280;45932;50.658;3.022;2022-11-20T09:15:16;100824.97;;;10.05;69.97
60059;BME280;45932;50.658;3.022;2022-11-20T09:17:42;100727.19;;;9.52;69.82
60059;BME280;45932;50.658;3.022;2022-11-20T09:20:07;100802.97;;;9.98;70.24
60059;BME280;45932;50.658;3.022;2022-11-20T09:22:33;100692.00;;;9.41;70.31
60059;BME280;45932;50.658;3.022;2022-11-20T09:24:59;100701.72;;;9.53;69.76
60059;BME280;45932;50.658;3.022;2022-11-20T09:27:24;100810.03;;;10.07;69.71
60059;BME280;45932;50.658;3.022;2022-11-20T09:29:49;100739.53;;;9.59;69.63
60059;BME280;45932;50.658;3.022;2022-11-20T09:32:14;100739.53;;;9.63;69.81
60059;BME280;45932;50.658;3.022;2022-11-20T09:34:40;100748.38;;;9.74;70.17
60059;BME280;45932;50.658;3.022;2022-11-20T09:37:08;100685.00;;;9.43;69.96
60059;BME280;45932;50.658;3.022;2022-11-20T09:39:34;100738.72;;;9.77;69.99
60059;BME280;45932;50.658;3.022;2022-11-20T09:42:47;100778.44;;;10.08;69.77
60059;BME280;45932;50.658;3.022;2022-11-20T09:48:29;100777.56;;;10.13;69.80
60059;BME280;45932;50.658;3.022;2022-11-20T09:51:08;100727.31;;;9.80;69.75
60059;BME280;45932;50.658;3.022;2022-11-20T09:56:43;100709.75;;;9.76;70.10
60059;BME280;45932;50.658;3.022;2022-11-20T09:59:42;100730.91;;;9.94;70.41
60059;BME280;45932;50.658;3.022;2022-11-20T10:02:29;100708.94;;;9.88;70.48
60059;BME280;45932;50.658;3.022;2022-11-20T10:10:44;100604.19;;;9.29;70.14
60059;BME280;45932;50.658;3.022;2022-11-20T10:30:02;100678.19;;;9.85;70.46
60059;BME280;45932;50.658;3.022;2022-11-20T10:32:34;100723.13;;;10.19;70.31
60059;BME280;45932;50.658;3.022;2022-11-20T10:35:06;100584.09;;;9.42;70.33
60059;BME280;45932;50.658;3.022;2022-11-20T10:37:44;100704.66;;;10.22;70.51
60059;BME280;45932;50.658;3.022;2022-11-20T10:43:02;100619.34;;;9.82;70.84
60059;BME280;45932;50.658;3.022;2022-11-20T10:45:36;100608.78;;;9.80;71.00
60059;BME280;45932;50.658;3.022;2022-11-20T10:48:15;100664.28;;;10.27;71.14
60059;BME280;45932;50.658;3.022;2022-11-20T10:53:44;100624.69;;;10.14;71.24
60059;BME280;45932;50.658;3.022;2022-11-20T10:56:19;100597.44;;;10.00;71.35
60059;BME280;45932;50.658;3.022;2022-11-20T10:59:11;100559.59;;;9.74;71.25
60059;BME280;45932;50.658;3.022;2022-11-20T11:01:41;100626.44;;;10.21;71.74
60059;BME280;45932;50.658;3.022;2022-11-20T11:07:00;100563.13;;;9.86;71.70
60059;BME280;45932;50.658;3.022;2022-11-20T11:09:35;100541.19;;;9.81;71.92
60059;BME280;45932;50.658;3.022;2022-11-20T11:12:07;100537.66;;;9.83;72.00
60059;BME280;45932;50.658;3.022;2022-11-20T11:14:42;100615.94;;;10.31;71.68
60059;BME280;45932;50.658;3.022;2022-11-20T11:22:34;100526.25;;;9.90;72.24
60059;BME280;45932;50.658;3.022;2022-11-20T11:25:18;100527.16;;;9.96;72.38
60059;BME280;45932;50.658;3.022;2022-11-20T11:27:48;100479.69;;;9.69;72.56
60059;BME280;45932;50.658;3.022;2022-11-20T11:30:16;100470.94;;;9.78;72.65
60059;BME280;45932;50.658;3.022;2022-11-20T11:32:42;100492.88;;;9.89;72.59
60059;BME280;45932;50.658;3.022;2022-11-20T11:35:26;100552.66;;;10.32;72.73
60059;BME280;45932;50.658;3.022;2022-11-20T11:38:02;100544.72;;;10.34;72.63
60059;BME280;45932;50.658;3.022;2022-11-20T11:40:31;100467.44;;;9.85;72.94
60059;BME280;45932;50.658;3.022;2022-11-20T11:43:00;100524.53;;;10.23;72.78
60059;BME280;45932;50.658;3.022;2022-11-20T11:45:26;100470.03;;;9.84;72.78
60059;BME280;45932;50.658;3.022;2022-11-20T11:47:54;100461.25;;;9.91;73.20
60059;BME280;45932;50.658;3.022;2022-11-20T11:50:23;100463.03;;;10.00;73.17
60059;BME280;45932;50.658;3.022;2022-11-20T11:53:14;100492.91;;;10.34;73.36
60059;BME280;45932;50.658;3.022;2022-11-20T11:55:58;100391.03;;;9.73;73.45
60059;BME280;45932;50.658;3.022;2022-11-20T11:58:48;100452.50;;;10.07;73.36
60059;BME280;45932;50.658;3.022;2022-11-20T12:06:58;100393.66;;;9.88;73.80
60059;BME280;45932;50.658;3.022;2022-11-20T12:09:34;100334.84;;;9.71;73.82
60059;BME280;45932;50.658;3.022;2022-11-20T12:12:09;100375.19;;;10.04;74.27
60059;BME280;45932;50.658;3.022;2022-11-20T12:14:37;100414.69;;;10.38;73.92
60059;BME280;45932;50.658;3.022;2022-11-20T12:17:04;100340.06;;;9.96;74.01
60059;BME280;45932;50.658;3.022;2022-11-20T12:19:31;100379.53;;;10.25;73.79
60059;BME280;45932;50.658;3.022;2022-11-20T12:28:03;100394.47;;;10.38;74.12
60059;BME280;45932;50.658;3.022;2022-11-20T12:30:42;100360.22;;;10.24;73.91
60059;BME280;45932;50.658;3.022;2022-11-20T12:44:57;100364.59;;;10.44;74.01
60059;BME280;45932;50.658;3.022;2022-11-20T12:50:28;100309.28;;;10.07;74.26
60059;BME280;45932;50.658;3.022;2022-11-20T12:53:13;100296.16;;;10.02;74.29
60059;BME280;45932;50.658;3.022;2022-11-20T12:58:53;100353.09;;;10.57;74.51
60059;BME280;45932;50.658;3.022;2022-11-20T13:01:37;100258.34;;;10.08;74.41
60059;BME280;45932;50.658;3.022;2022-11-20T13:07:05;100302.19;;;10.31;74.83
60059;BME280;45932;50.658;3.022;2022-11-20T13:09:33;100332.00;;;10.54;74.86
60059;BME280;45932;50.658;3.022;2022-11-20T13:12:08;100286.41;;;10.23;74.58
60059;BME280;45932;50.658;3.022;2022-11-20T13:17:28;100353.88;;;10.80;74.57
60059;BME280;45932;50.658;3.022;2022-11-20T13:19:56;100353.03;;;10.79;74.55
60059;BME280;45932;50.658;3.022;2022-11-20T13:22:27;100289.84;;;10.48;74.68
60059;BME280;45932;50.658;3.022;2022-11-20T13:24:53;100340.63;;;10.91;74.63
60059;BME280;45932;50.658;3.022;2022-11-20T13:27:21;100251.22;;;10.38;74.80
60059;BME280;45932;50.658;3.022;2022-11-20T13:30:21;100351.13;;;11.03;74.80
60059;BME280;45932;50.658;3.022;2022-11-20T13:35:29;100313.44;;;10.76;74.56
60059;BME280;45932;50.658;3.022;2022-11-20T13:40:29;100308.97;;;10.87;74.41
60059;BME280;45932;50.658;3.022;2022-11-20T13:43:49;100300.25;;;10.79;74.34
60059;BME280;45932;50.658;3.022;2022-11-20T13:46:00;100358.91;;;11.21;74.36
60059;BME280;45932;50.658;3.022;2022-11-20T13:48:30;100349.28;;;11.17;74.39
60059;BME280;45932;50.658;3.022;2022-11-20T13:51:09;100305.44;;;10.92;74.43
60059;BME280;45932;50.658;3.022;2022-11-20T13:57:23;100331.81;;;10.98;73.85
60059;BME280;45932;50.658;3.022;2022-11-20T14:00:05;100391.44;;;11.30;73.97
60059;BME280;45932;50.658;3.022;2022-11-20T14:02:23;100268.69;;;10.64;73.76
60059;BME280;45932;50.658;3.022;2022-11-20T14:04:53;100330.06;;;10.91;73.75
60059;BME280;45932;50.658;3.022;2022-11-20T14:07:22;100329.19;;;10.92;73.55
60059;BME280;45932;50.658;3.022;2022-11-20T14:09:54;100402.81;;;11.38;73.70
60059;BME280;45932;50.658;3.022;2022-11-20T14:12:23;100380.94;;;11.22;73.22
60059;BME280;45932;50.658;3.022;2022-11-20T14:14:51;100342.31;;;11.01;73.44
60059;BME280;45932;50.658;3.022;2022-11-20T14:17:20;100344.06;;;11.05;73.61
60059;BME280;45932;50.658;3.022;2022-11-20T14:19:47;100325.69;;;10.85;73.40
60059;BME280;45932;50.658;3.022;2022-11-20T14:22:21;100405.44;;;11.43;73.46
60059;BME280;45932;50.658;3.022;2022-11-20T14:24:48;100399.25;;;11.47;73.41
60059;BME280;45932;50.658;3.022;2022-11-20T14:27:17;100404.50;;;11.48;73.29
60059;BME280;45932;50.658;3.022;2022-11-20T14:29:45;100364.16;;;11.26;73.37
60059;BME280;45932;50.658;3.022;2022-11-20T14:32:11;100336.13;;;11.08;73.53
60059;BME280;45932;50.658;3.022;2022-11-20T14:34:41;100328.28;;;10.96;73.06